Time;durP1;ratioP1;P1;durP2;ratioP2;P2;SDS_P1;SDS_P2;PMS_P1;PMS_P2;Temp;Humidity;BMP_temperature;BMP_pressure;BME280_temperature;BME280_humidity;BME280_pressure;Samples;Min_cycle;Max_cycle;Signal;HPM_P1;HPM_P2
2023/11/20 06:08:29;;;;;;;;;;;;;;;-2.97;100.00;99702.84;1854645;76;20502;-76
2023/11/20 06:10:56;;;;;;;;;;;;;;;-2.96;100.00;99703.27;1821354;77;20174;-73
2023/11/20 06:13:23;;;;;;;;;;;;;;;-2.91;100.00;99701.96;1824411;77;20094;-70
2023/11/20 06:15:49;;;;;;;;;;;;;;;-2.85;100.00;99699.38;1815206;78;20395;-78
2023/11/20 06:33:33;;;;;;;;;;;;;;;-2.22;100.00;99700.50;1828793;78;20103;-75
2023/11/20 06:36:00;;;;;;;;;;;;;;;-2.18;100.00;99693.67;1818737;78;20384;-75
2023/11/20 06:38:28;;;;;;;;;;;;;;;-2.14;100.00;99691.50;1779214;78;20103;-72
2023/11/20 06:41:00;;;;;;;;;;;;;;;-2.09;100.00;99696.13;1805078;78;20096;-73
2023/11/20 07:47:10;;;;;;;;;;;;;;;-1.36;100.00;99668.43;1758851;81;20135;-72
2023/11/20 07:49:38;;;;;;;;;;;;;;;-1.28;100.00;99670.88;1753671;81;20109;-75
2023/11/20 07:52:06;;;;;;;;;;;;;;;-1.23;100.00;99672.52;1765200;81;20116;-71
2023/11/20 07:54:33;;;;;;;;;;;;;;;-1.17;100.00;99670.27;1767863;81;20140;-70
2023/11/20 07:57:00;;;;;;;;;;;;;;;-1.14;100.00;99674.06;1765974;81;20120;-71
2023/11/20 07:59:27;;;;;;;;;;;;;;;-1.07;100.00;99670.55;1763044;81;20108;-77
2023/11/20 08:01:54;;;;;;;;;;;;;;;-1.04;100.00;99666.25;1758873;81;20135;-76
2023/11/20 08:04:21;;;;;;;;;;;;;;;-1.01;100.00;99663.64;1764846;81;20097;-74
2023/11/20 08:06:48;;;;;;;;;;;;;;;-0.96;100.00;99661.45;1760334;81;20156;-74
2023/11/20 12:38:46;;;;;;;;;;;;;;;0.04;100.00;99556.00;1760286;81;20146;-72
2023/11/20 12:41:16;;;;;;;;;;;;;;;0.04;100.00;99559.00;1760818;80;20382;-74
2023/11/20 12:43:43;;;;;;;;;;;;;;;0.02;100.00;99561.59;1759524;81;20112;-76
2023/11/20 12:46:16;;;;;;;;;;;;;;;-0.01;100.00;99562.96;1758711;81;20168;-72
2023/11/20 12:51:12;;;;;;;;;;;;;;;-0.13;100.00;99561.49;1761838;80;20085;-73
2023/11/20 12:53:44;;;;;;;;;;;;;;;-0.13;100.00;99567.05;1760774;81;20159;-76
2023/11/20 12:56:14;;;;;;;;;;;;;;;-0.12;100.00;99564.89;1754448;81;20456;-74
2023/11/20 12:58:41;;;;;;;;;;;;;;;-0.14;100.00;99570.48;1761323;80;20214;-71
2023/11/20 13:01:08;;;;;;;;;;;;;;;-0.17;100.00;99570.54;1741354;81;20109;-78
2023/11/20 13:03:38;;;;;;;;;;;;;;;-0.22;100.00;99571.06;1737168;81;20163;-73
2023/11/20 13:06:06;;;;;;;;;;;;;;;-0.22;100.00;99558.27;1751283;81;20204;-78
2023/11/20 13:08:34;;;;;;;;;;;;;;;-0.23;100.00;99555.30;1710415;81;20147;-77
2023/11/20 13:26:15;;;;;;;;;;;;;;;-0.21;100.00;99572.31;1749619;80;20152;-70
2023/11/20 13:28:42;;;;;;;;;;;;;;;-0.21;100.00;99562.52;1754532;81;20118;-76
2023/11/20 13:31:12;;;;;;;;;;;;;;;-0.26;100.00;99563.88;1766760;81;20125;-78
2023/11/20 13:33:46;;;;;;;;;;;;;;;-0.28;100.00;99564.34;1756439;81;20452;-75
2023/11/20 13:43:52;;;;;;;;;;;;;;;-0.32;100.00;99575.95;1761122;80;20121;-72
2023/11/20 13:46:19;;;;;;;;;;;;;;;-0.32;100.00;99575.95;1761056;80;20170;-74
2023/11/20 13:48:58;;;;;;;;;;;;;;;-0.32;100.00;99577.22;1758573;81;20104;-74
2023/11/20 13:51:28;;;;;;;;;;;;;;;-0.34;100.00;99578.53;1760659;80;20390;-72
2023/11/20 13:53:55;;;;;;;;;;;;;;;-0.36;100.00;99584.95;1758304;80;20405;-75
2023/11/20 13:56:40;;;;;;;;;;;;;;;-0.38;100.00;99585.85;1756105;79;20140;-73
2023/11/20 13:59:09;;;;;;;;;;;;;;;-0.41;100.00;99585.94;1762769;81;20092;-74
2023/11/20 14:21:54;;;;;;;;;;;;;;;-0.47;100.00;99589.45;1762148;79;20127;-75
2023/11/20 14:24:29;;;;;;;;;;;;;;;-0.45;100.00;99595.38;1752523;81;20095;-75
2023/11/20 14:26:55;;;;;;;;;;;;;;;-0.45;100.00;99591.98;1753353;80;20163;-76
2023/11/20 14:29:22;;;;;;;;;;;;;;;-0.46;100.00;99591.58;1757612;80;20183;-71
2023/11/20 14:31:51;;;;;;;;;;;;;;;-0.48;100.00;99592.88;1759558;81;20175;-74
2023/11/20 14:34:18;;;;;;;;;;;;;;;-0.48;100.00;99598.00;1758547;80;20160;-74
